Time;durP1;ratioP1;P1;durP2;ratioP2;P2;SDS_P1;SDS_P2;PMS_P1;PMS_P2;Temp;Humidity;BMP_temperature;BMP_pressure;BME280_temperature;BME280_humidity;BME280_pressure;Samples;Min_cycle;Max_cycle;Signal;HPM_P1;HPM_P2
2022/10/05 00:01:43;;;;;;;10.47;5.00;;;;;;;41.89;33.27;101036.09;6100101;23;20741;-72
2022/10/05 00:04:17;;;;;;;7.47;5.03;;;;;;;41.87;33.21;101031.00;6126209;23;20351;-73
2022/10/05 00:07:05;;;;;;;10.20;4.23;;;;;;;41.77;33.59;101032.16;6100007;23;20389;-72
2022/10/05 00:09:33;;;;;;;8.70;3.50;;;;;;;41.92;33.47;101021.81;6099966;23;20847;-72
2022/10/05 00:12:11;;;;;;;11.63;3.53;;;;;;;42.22;32.74;101019.88;6099918;23;20863;-72
2022/10/05 00:14:39;;;;;;;11.83;4.73;;;;;;;42.17;32.75;101020.84;6102115;23;20431;-72
2022/10/05 00:17:05;;;;;;;10.40;4.73;;;;;;;42.27;32.86;101012.28;6099772;23;20382;-71
2022/10/05 00:19:37;;;;;;;13.13;3.60;;;;;;;42.07;33.13;101018.53;6099654;23;20393;-71
2022/10/05 00:22:12;;;;;;;8.70;4.53;;;;;;;42.23;32.93;101005.09;6099903;23;20382;-71
2022/10/05 00:24:38;;;;;;;11.60;4.40;;;;;;;41.64;33.06;101018.75;6099612;23;20421;-71
2022/10/05 00:27:18;;;;;;;7.50;4.13;;;;;;;41.80;33.30;101014.34;6099873;23;20386;-71
2022/10/05 00:29:45;;;;;;;10.47;5.50;;;;;;;41.74;33.35;101015.63;6099518;23;20385;-71
2022/10/05 00:32:11;;;;;;;8.63;4.40;;;;;;;41.40;33.70;101013.91;6126137;23;20425;-71
2022/10/05 00:34:38;;;;;;;8.93;4.10;;;;;;;41.83;33.42;101014.50;6099732;23;20386;-71
2022/10/05 00:37:05;;;;;;;15.23;5.00;;;;;;;41.63;33.44;101001.63;6099721;23;20866;-71
2022/10/05 00:39:33;;;;;;;22.43;4.50;;;;;;;41.80;33.09;101001.53;6099745;23;20776;-72
2022/10/05 00:42:23;;;;;;;13.83;4.00;;;;;;;41.96;32.95;100993.56;6099675;23;20382;-71
2022/10/05 00:45:02;;;;;;;11.60;3.80;;;;;;;42.00;32.78;100972.72;6099534;23;20488;-71
2022/10/05 00:47:47;;;;;;;9.10;4.50;;;;;;;41.93;32.86;100960.72;6099699;23;20389;-72
2022/10/05 00:50:42;;;;;;;15.70;3.90;;;;;;;41.86;32.71;100951.16;6125929;23;20335;-71
2022/10/05 00:53:54;;;;;;;8.03;4.00;;;;;;;41.76;32.95;100940.69;6099863;23;20381;-71
2022/10/05 00:56:41;;;;;;;7.67;4.20;;;;;;;42.05;32.77;100936.28;6090168;23;20390;-71
2022/10/05 00:59:29;;;;;;;9.30;3.83;;;;;;;42.06;32.68;100937.88;6099850;23;20809;-72
2022/10/05 01:02:05;;;;;;;10.93;4.90;;;;;;;41.69;33.35;100929.47;6099795;23;20373;-71
2022/10/05 01:04:53;;;;;;;9.00;3.63;;;;;;;41.68;33.38;100929.78;6099313;23;20513;-71
2022/10/05 01:07:37;;;;;;;7.43;3.83;;;;;;;41.97;32.88;100932.50;6099465;23;20398;-71
2022/10/05 01:10:44;;;;;;;14.20;5.13;;;;;;;41.59;33.45;100933.38;6099580;23;20381;-72
2022/10/05 01:13:25;;;;;;;6.53;3.10;;;;;;;41.66;33.38;100923.88;6095365;23;20410;-73
2022/10/05 01:16:39;;;;;;;11.93;5.70;;;;;;;41.93;32.78;100911.69;6125338;23;20422;-72
2022/10/05 01:19:15;;;;;;;15.53;5.30;;;;;;;41.58;33.28;100906.47;6099806;23;20402;-71
2022/10/05 01:21:56;;;;;;;8.70;3.90;;;;;;;41.44;33.44;100895.06;6099344;23;20385;-71
2022/10/05 01:24:27;;;;;;;8.50;4.47;;;;;;;41.80;32.82;100895.28;6125889;23;20358;-71
2022/10/05 01:27:16;;;;;;;8.27;3.77;;;;;;;41.72;32.81;100889.88;6099427;23;20802;-71
2022/10/05 01:29:45;;;;;;;12.13;4.80;;;;;;;41.79;32.71;100885.50;6081637;23;20886;-71
2022/10/05 01:32:38;;;;;;;11.47;4.80;;;;;;;41.53;33.15;100887.59;6099475;23;20382;-71
2022/10/05 01:35:33;;;;;;;9.70;4.17;;;;;;;41.68;33.15;100887.03;6099349;23;20383;-71
2022/10/05 01:38:05;;;;;;;10.57;4.70;;;;;;;41.68;32.98;100878.88;6125729;23;20346;-71
2022/10/05 01:40:34;;;;;;;8.37;4.17;;;;;;;41.30;33.82;100889.78;6100603;23;20412;-71
2022/10/05 01:43:10;;;;;;;11.33;3.80;;;;;;;41.42;33.72;100881.75;6101305;23;20386;-71
2022/10/05 01:46:06;;;;;;;7.27;3.60;;;;;;;41.50;33.55;100871.94;6101415;23;20941;-71
2022/10/05 01:48:47;;;;;;;10.33;4.20;;;;;;;41.51;33.73;100887.16;6101397;23;20406;-71
2022/10/05 01:51:21;;;;;;;14.13;4.80;;;;;;;41.74;32.98;100885.75;6101233;23;20441;-71
2022/10/05 01:53:59;;;;;;;15.23;5.57;;;;;;;41.76;32.88;100874.50;6101191;23;20965;-71
2022/10/05 01:56:42;;;;;;;10.37;4.10;;;;;;;41.54;33.55;100875.59;6101244;23;20870;-71
2022/10/05 01:59:41;;;;;;;9.10;4.10;;;;;;;41.39;33.68;100874.25;6101313;23;20478;-72
2022/10/05 02:02:14;;;;;;;8.87;4.70;;;;;;;41.29;33.50;100872.66;6101206;23;20396;-71
2022/10/05 02:05:03;;;;;;;6.87;3.70;;;;;;;41.63;32.90;100876.34;6101077;23;20429;-72
2022/10/05 02:07:45;;;;;;;7.67;4.10;;;;;;;41.48;33.34;100876.91;6127458;23;20383;-71
2022/10/05 02:10:19;;;;;;;10.57;5.00;;;;;;;41.46;33.35;100884.63;6101042;23;20381;-72
2022/10/05 02:12:50;;;;;;;11.87;4.43;;;;;;;41.36;33.65;100893.16;6101377;23;20467;-73
2022/10/05 02:15:26;;;;;;;7.33;4.27;;;;;;;41.17;34.03;100886.19;6127091;23;20425;-72
2022/10/05 02:17:58;;;;;;;6.67;3.60;;;;;;;41.47;33.00;100880.75;6101034;23;20871;-72
2022/10/05 02:20:27;;;;;;;11.87;4.40;;;;;;;41.14;33.57;100875.97;6101148;23;20386;-72
2022/10/05 02:22:59;;;;;;;10.47;4.50;;;;;;;41.31;33.50;100884.03;6100792;23;21073;-71
2022/10/05 02:25:32;;;;;;;7.60;3.63;;;;;;;41.39;33.18;100871.53;6101142;23;20433;-72
2022/10/05 02:28:07;;;;;;;6.47;3.33;;;;;;;41.36;33.59;100871.38;6100936;23;20409;-72
2022/10/05 02:30:41;;;;;;;7.90;4.83;;;;;;;40.86;34.47;100882.94;6100843;23;20401;-72
2022/10/05 02:33:14;;;;;;;8.40;4.53;;;;;;;40.98;34.13;100874.91;6100947;23;20489;-72
2022/10/05 02:35:40;;;;;;;11.00;4.17;;;;;;;41.14;33.72;100869.72;6100986;23;20433;-72
2022/10/05 02:38:52;;;;;;;9.90;4.23;;;;;;;41.34;33.26;100872.50;6101043;23;20875;-72
2022/10/05 02:41:23;;;;;;;5.70;3.00;;;;;;;41.37;33.59;100868.31;6127332;23;20748;-72
2022/10/05 02:43:57;;;;;;;11.93;4.90;;;;;;;41.51;33.27;100873.53;6127050;23;20871;-72
2022/10/05 02:46:37;;;;;;;8.57;5.10;;;;;;;41.56;33.34;100873.34;6076997;23;20433;-72
2022/10/05 02:49:24;;;;;;;12.40;4.97;;;;;;;41.15;33.94;100863.16;6100765;23;20469;-72
2022/10/05 02:51:53;;;;;;;5.90;3.80;;;;;;;41.49;32.95;100862.94;6076347;23;20791;-72
2022/10/05 02:54:47;;;;;;;8.50;4.40;;;;;;;40.99;34.17;100862.91;6100525;23;20772;-72
2022/10/05 02:57:37;;;;;;;13.50;4.70;;;;;;;41.33;33.42;100856.50;6127052;23;20358;-72
2022/10/05 03:00:24;;;;;;;12.03;4.73;;;;;;;41.31;33.40;100856.00;6076699;23;20461;-72
2022/10/05 03:02:50;;;;;;;6.30;3.80;;;;;;;41.22;33.73;100861.50;6100854;23;20464;-72
2022/10/05 03:05:42;;;;;;;8.97;4.23;;;;;;;41.17;33.76;100867.13;6100551;23;20456;-72
2022/10/05 03:08:11;;;;;;;10.90;3.83;;;;;;;41.31;33.66;100865.00;6100485;23;20402;-72
2022/10/05 03:10:56;;;;;;;8.13;3.50;;;;;;;41.30;33.55;100862.56;6100407;23;20953;-72
2022/10/05 03:14:06;;;;;;;10.20;4.20;;;;;;;41.15;33.72;100863.16;6100373;23;20386;-73
2022/10/05 03:17:01;;;;;;;8.73;4.10;;;;;;;41.37;33.68;100860.16;6096493;23;20401;-72
2022/10/05 03:19:45;;;;;;;14.50;5.07;;;;;;;40.88;34.44;100861.66;6115066;23;20382;-73
2022/10/05 03:22:28;;;;;;;7.17;4.90;;;;;;;41.03;34.60;100864.66;6100720;23;20401;-72
2022/10/05 03:25:29;;;;;;;10.73;4.73;;;;;;;41.22;34.00;100868.88;6126597;23;20417;-72
2022/10/05 03:28:19;;;;;;;13.93;4.93;;;;;;;41.30;33.71;100866.09;6100113;23;20483;-72
2022/10/05 03:30:59;;;;;;;8.93;4.33;;;;;;;40.98;33.99;100867.56;6079280;23;20417;-72
2022/10/05 03:33:46;;;;;;;8.40;4.90;;;;;;;41.54;33.18;100872.88;6100288;23;20409;-72
2022/10/05 03:36:33;;;;;;;10.10;4.67;;;;;;;41.12;33.71;100864.59;6100261;23;20389;-72
2022/10/05 03:39:23;;;;;;;15.27;4.70;;;;;;;41.46;33.50;100873.72;6100387;23;20436;-72
2022/10/05 03:42:07;;;;;;;8.17;5.13;;;;;;;40.94;33.90;100890.28;6100160;23;20782;-72
2022/10/05 03:44:41;;;;;;;11.93;3.97;;;;;;;40.76;34.39;100884.09;6100129;23;20472;-72
2022/10/05 03:47:52;;;;;;;15.10;5.50;;;;;;;41.11;34.24;100894.88;6100443;23;20373;-72
2022/10/05 03:50:33;;;;;;;13.10;7.00;;;;;;;40.90;34.10;100892.06;6077542;23;20386;-72
2022/10/05 03:53:12;;;;;;;10.97;4.37;;;;;;;40.92;34.58;100893.34;6100021;23;20433;-72
2022/10/05 03:55:44;;;;;;;8.70;3.57;;;;;;;40.94;34.23;100903.91;6100146;23;20389;-72
2022/10/05 03:58:21;;;;;;;8.70;3.60;;;;;;;41.08;33.97;100907.22;6100046;23;20389;-72
2022/10/05 04:00:52;;;;;;;7.67;4.03;;;;;;;41.12;34.19;100916.31;6099944;23;20447;-72
2022/10/05 04:03:35;;;;;;;12.13;5.07;;;;;;;41.54;33.71;100913.72;6099980;23;20382;-72
2022/10/05 04:06:22;;;;;;;13.10;5.10;;;;;;;41.43;33.05;100920.66;6099926;23;20437;-72
2022/10/05 04:09:00;;;;;;;12.40;6.10;;;;;;;41.50;33.20;100913.59;6100096;23;20397;-72
2022/10/05 04:11:33;;;;;;;10.67;4.90;;;;;;;41.56;33.23;100906.81;6100050;23;20448;-72
2022/10/05 04:14:31;;;;;;;13.97;5.47;;;;;;;41.63;33.12;100914.47;6099742;23;20823;-72
2022/10/05 04:17:02;;;;;;;8.47;4.37;;;;;;;41.51;33.28;100914.38;6099868;23;20529;-72
2022/10/05 04:19:38;;;;;;;7.87;4.30;;;;;;;41.17;34.06;100916.13;6099966;23;20410;-72
2022/10/05 04:22:16;;;;;;;10.77;4.30;;;;;;;41.27;33.64;100912.25;6099911;23;20416;-72
2022/10/05 04:24:45;;;;;;;8.37;5.00;;;;;;;41.37;33.55;100911.88;6099633;23;20432;-72
2022/10/05 04:27:23;;;;;;;6.23;3.83;;;;;;;41.21;33.71;100917.06;6100154;23;20838;-72
2022/10/05 04:30:00;;;;;;;7.93;4.10;;;;;;;40.85;34.37;100920.22;6099741;23;20393;-72
2022/10/05 04:32:30;;;;;;;8.27;4.80;;;;;;;41.23;34.15;100927.63;6100030;23;20381;-72
2022/10/05 04:35:20;;;;;;;10.73;4.57;;;;;;;41.41;33.62;100939.25;6099477;23;20378;-72
2022/10/05 04:37:52;;;;;;;11.37;5.50;;;;;;;41.43;33.67;100942.44;6099719;23;20419;-72
2022/10/05 04:40:51;;;;;;;12.73;5.00;;;;;;;41.50;33.50;100940.81;6125843;23;20489;-72
2022/10/05 04:43:58;;;;;;;11.70;4.63;;;;;;;41.66;33.34;100943.75;6099634;23;20388;-72
2022/10/05 04:46:55;;;;;;;7.30;4.00;;;;;;;41.50;33.23;100950.91;6099562;23;20944;-71
2022/10/05 04:49:45;;;;;;;11.00;4.43;;;;;;;41.54;32.91;100958.06;6124551;23;20400;-71
2022/10/05 04:52:37;;;;;;;15.80;5.20;;;;;;;41.63;32.80;100963.50;6099488;23;20393;-72
2022/10/05 04:55:07;;;;;;;12.83;5.53;;;;;;;41.56;33.03;100961.28;6099631;23;20436;-71
2022/10/05 04:58:01;;;;;;;15.10;4.27;;;;;;;41.49;33.03;100963.69;6099579;23;20473;-72
2022/10/05 05:01:05;;;;;;;9.90;4.40;;;;;;;41.63;32.87;100954.53;6038051;23;20389;-72
2022/10/05 05:03:51;;;;;;;9.30;4.60;;;;;;;41.52;33.13;100963.06;6045602;23;20959;-72
2022/10/05 05:06:28;;;;;;;8.40;4.30;;;;;;;41.56;32.78;100971.38;6099109;23;20972;-73
2022/10/05 05:09:34;;;;;;;7.53;4.67;;;;;;;41.51;33.27;100977.00;6099651;23;20385;-73
2022/10/05 05:12:21;;;;;;;10.07;4.13;;;;;;;41.56;32.82;100971.38;6125836;23;20700;-73
2022/10/05 05:15:09;;;;;;;10.90;4.60;;;;;;;41.43;33.27;100975.13;6099954;23;20476;-73
2022/10/05 05:17:44;;;;;;;9.97;3.87;;;;;;;41.34;33.10;100984.13;6127870;23;20365;-73
2022/10/05 05:20:57;;;;;;;7.53;4.90;;;;;;;41.26;33.18;100979.50;6101615;23;20720;-73
2022/10/05 05:23:46;;;;;;;9.20;4.07;;;;;;;41.26;33.36;100979.50;5958639;24;20735;-73
2022/10/05 05:26:41;;;;;;;14.10;5.50;;;;;;;41.25;33.59;100985.25;6101459;23;20437;-73
2022/10/05 05:29:28;;;;;;;9.93;4.57;;;;;;;40.94;34.07;100991.75;6086667;23;20902;-73
2022/10/05 05:32:01;;;;;;;8.37;4.20;;;;;;;40.67;34.22;101003.00;6101493;23;20401;-72
2022/10/05 05:34:33;;;;;;;11.40;4.40;;;;;;;41.13;33.79;101004.19;6101605;23;20377;-72
2022/10/05 05:37:05;;;;;;;10.17;3.67;;;;;;;41.09;34.12;101014.94;6101518;23;20409;-71
2022/10/05 05:39:50;;;;;;;14.40;5.23;;;;;;;41.34;33.43;101016.00;6101554;23;20389;-72
2022/10/05 05:42:46;;;;;;;12.77;5.57;;;;;;;41.16;33.60;101020.66;6127362;23;20365;-72
2022/10/05 05:45:33;;;;;;;9.87;5.37;;;;;;;41.44;33.29;101021.09;6100129;23;20429;-72
2022/10/05 05:48:04;;;;;;;10.63;5.13;;;;;;;41.33;33.76;101025.28;6100693;23;20741;-72
2022/10/05 05:50:42;;;;;;;13.20;5.87;;;;;;;41.40;33.38;101027.50;6100819;23;20473;-74
2022/10/05 05:53:19;;;;;;;13.20;6.23;;;;;;;41.59;33.01;101027.91;6101013;23;20378;-73
2022/10/05 05:55:51;;;;;;;16.47;8.10;;;;;;;41.46;33.55;101024.28;6100875;23;20400;-72
2022/10/05 05:58:17;;;;;;;13.23;6.00;;;;;;;41.36;33.14;101030.06;6101048;23;20392;-72
2022/10/05 06:01:12;;;;;;;10.60;6.73;;;;;;;41.47;33.24;101030.53;6100939;23;20378;-72
2022/10/05 06:04:00;;;;;;;14.30;6.57;;;;;;;41.49;33.32;101039.94;6040720;23;20850;-71
2022/10/05 06:06:33;;;;;;;12.33;7.00;;;;;;;41.78;33.07;101036.47;6098922;23;20523;-73
2022/10/05 06:09:04;;;;;;;16.40;9.90;;;;;;;41.52;33.22;101044.75;6099340;23;20382;-71
2022/10/05 06:12:08;;;;;;;11.07;5.63;;;;;;;41.38;33.59;101049.63;6100225;23;20723;-74
2022/10/05 06:14:52;;;;;;;18.73;6.60;;;;;;;41.19;33.64;101036.38;6087422;23;20437;-72
2022/10/05 06:17:30;;;;;;;9.50;6.90;;;;;;;41.30;33.57;101043.03;6098234;23;20771;-75
2022/10/05 06:19:58;;;;;;;8.80;5.13;;;;;;;41.42;33.39;101038.88;6100120;23;20381;-71
2022/10/05 06:22:29;;;;;;;13.90;4.10;;;;;;;41.24;33.57;101049.78;6124401;23;20362;-73
2022/10/05 06:25:13;;;;;;;13.13;5.60;;;;;;;41.68;33.24;101061.34;6099404;23;20430;-72
2022/10/05 06:28:11;;;;;;;10.60;5.17;;;;;;;41.80;32.72;101066.09;6099518;23;20464;-73
2022/10/05 06:30:55;;;;;;;10.27;4.60;;;;;;;41.77;33.16;101067.56;6100679;23;20406;-73
2022/10/05 06:33:36;;;;;;;9.30;5.33;;;;;;;41.50;33.21;101068.00;6100650;23;20452;-73
2022/10/05 06:36:35;;;;;;;9.07;6.33;;;;;;;41.55;33.26;101070.53;6100731;23;20510;-73
2022/10/05 06:39:26;;;;;;;9.87;4.50;;;;;;;41.81;32.76;101075.91;6053099;23;20382;-73
2022/10/05 06:42:04;;;;;;;11.03;4.70;;;;;;;41.60;32.96;101081.25;6100522;23;20385;-73
2022/10/05 06:44:43;;;;;;;10.67;5.83;;;;;;;41.56;33.25;101085.75;6101261;23;20359;-73
2022/10/05 06:47:35;;;;;;;9.10;4.07;;;;;;;42.00;32.65;101095.34;6100602;23;20390;-72
2022/10/05 06:50:19;;;;;;;12.63;6.00;;;;;;;42.22;32.35;101094.28;6076348;23;20378;-73
2022/10/05 06:52:57;;;;;;;10.90;5.33;;;;;;;42.21;32.37;101098.13;6100793;23;20740;-72
2022/10/05 06:55:32;;;;;;;9.90;5.83;;;;;;;42.35;31.77;101095.94;6099337;23;20377;-73
2022/10/05 06:58:35;;;;;;;16.20;8.30;;;;;;;42.38;32.05;101097.22;6100737;23;20397;-73
2022/10/05 07:01:11;;;;;;;14.07;4.67;;;;;;;41.84;33.04;101099.75;6097917;23;20472;-75
2022/10/05 07:03:47;;;;;;;10.90;5.87;;;;;;;41.99;32.63;101106.56;6098343;23;20866;-74
2022/10/05 07:06:24;;;;;;;12.13;6.47;;;;;;;42.06;32.10;101106.88;6098821;23;20500;-76
2022/10/05 07:09:23;;;;;;;11.70;5.50;;;;;;;42.11;32.07;101112.94;6074676;23;20385;-72
2022/10/05 07:12:11;;;;;;;10.13;4.70;;;;;;;42.32;31.94;101136.72;6098788;23;20390;-73
2022/10/05 07:14:43;;;;;;;11.90;5.03;;;;;;;41.98;32.28;101143.13;6084016;23;20437;-71
2022/10/05 07:17:18;;;;;;;7.27;4.47;;;;;;;41.69;32.89;101147.38;6100237;23;20465;-73
2022/10/05 07:20:16;;;;;;;16.03;5.20;;;;;;;42.23;32.00;101144.13;6100313;23;20866;-72
2022/10/05 07:23:23;;;;;;;14.67;5.70;;;;;;;42.45;31.62;101149.31;6110962;23;20409;-70
2022/10/05 07:26:17;;;;;;;6.90;4.07;;;;;;;41.86;32.30;101157.44;6100690;23;20402;-72
2022/10/05 07:28:54;;;;;;;5.37;3.10;;;;;;;42.13;32.24;101164.38;6054577;23;20516;-72
2022/10/05 07:31:29;;;;;;;10.93;3.90;;;;;;;42.42;31.85;101173.69;6126552;23;20354;-71
2022/10/05 07:34:30;;;;;;;9.90;4.47;;;;;;;42.34;32.09;101169.91;6126147;23;20393;-71
2022/10/05 07:40:27;;;;;;;5.80;3.30;;;;;;;42.30;31.83;101177.94;6126183;23;20442;-72
2022/10/05 07:43:13;;;;;;;9.63;6.00;;;;;;;42.30;32.16;101182.59;6099721;23;20378;-71
2022/10/05 07:45:54;;;;;;;13.60;6.47;;;;;;;42.47;32.29;101184.41;6099498;23;20775;-70
2022/10/05 07:48:31;;;;;;;8.23;4.07;;;;;;;42.51;31.85;101188.09;6099813;23;20382;-72
2022/10/05 07:51:22;;;;;;;8.10;3.90;;;;;;;42.10;32.33;101192.28;6126279;23;20354;-70
2022/10/05 07:54:05;;;;;;;9.53;4.70;;;;;;;41.88;32.69;101203.44;6053998;23;20386;-74
2022/10/05 07:56:39;;;;;;;6.53;4.20;;;;;;;42.22;32.53;101205.25;6076158;23;20418;-70
2022/10/05 07:59:18;;;;;;;8.67;3.90;;;;;;;42.34;32.42;101211.59;6100117;23;20397;-72
2022/10/05 08:01:50;;;;;;;8.57;5.20;;;;;;;42.44;31.71;101201.44;6125434;23;20363;-71
2022/10/05 08:04:24;;;;;;;18.67;6.77;;;;;;;42.21;32.05;101199.00;6076390;23;20890;-71
2022/10/05 08:06:58;;;;;;;11.37;7.27;;;;;;;42.62;31.85;101208.44;6099924;23;20740;-71
2022/10/05 08:09:40;;;;;;;18.00;7.00;;;;;;;42.45;31.76;101212.03;6099948;23;20809;-72
2022/10/05 08:12:27;;;;;;;17.53;7.30;;;;;;;42.61;31.81;101209.56;6100048;23;20727;-71
2022/10/05 08:15:02;;;;;;;8.77;4.53;;;;;;;42.34;32.29;101216.25;6124724;23;20421;-72
2022/10/05 08:17:33;;;;;;;11.30;3.60;;;;;;;42.53;32.06;101216.63;6097784;23;20378;-72
2022/10/05 08:20:23;;;;;;;5.97;3.40;;;;;;;42.71;31.62;101220.06;6097665;23;20758;-73
2022/10/05 08:23:12;;;;;;;14.60;5.30;;;;;;;42.39;32.37;101224.25;6098904;23;20421;-72
2022/10/05 08:25:56;;;;;;;18.73;7.87;;;;;;;42.28;32.47;101223.81;6099040;23;20426;-72
2022/10/05 08:28:27;;;;;;;10.47;4.70;;;;;;;42.12;32.51;101229.00;6098770;23;20392;-72
2022/10/05 08:31:02;;;;;;;13.23;4.93;;;;;;;41.90;32.52;101234.69;6125915;23;20359;-72
2022/10/05 08:33:38;;;;;;;12.23;4.10;;;;;;;42.18;32.84;101239.75;6099748;23;20389;-72
2022/10/05 08:36:12;;;;;;;10.43;3.50;;;;;;;42.16;32.45;101237.34;6099622;23;20388;-72
2022/10/05 08:38:39;;;;;;;21.93;5.13;;;;;;;42.09;32.33;101246.00;6126150;23;20366;-70
2022/10/05 08:41:52;;;;;;;8.00;3.60;;;;;;;42.19;32.05;101239.44;6099854;23;20911;-70
2022/10/05 08:44:36;;;;;;;12.53;5.00;;;;;;;42.34;32.29;101244.31;6099494;23;20394;-71
2022/10/05 08:47:36;;;;;;;7.10;4.33;;;;;;;42.63;32.09;101248.22;6100021;23;20778;-72
2022/10/05 08:50:14;;;;;;;18.43;4.10;;;;;;;42.68;31.77;101247.22;6096099;23;20862;-71
2022/10/05 08:52:59;;;;;;;7.30;3.50;;;;;;;42.56;31.79;101250.63;6099616;23;20382;-72
2022/10/05 08:55:37;;;;;;;16.83;7.00;;;;;;;42.39;32.19;101254.25;6099545;23;20388;-73
2022/10/05 08:58:24;;;;;;;12.23;4.20;;;;;;;42.30;31.74;101254.28;6099639;23;20393;-71
2022/10/05 09:01:13;;;;;;;11.30;4.03;;;;;;;42.32;32.08;101253.97;6099505;23;20937;-71
2022/10/05 09:04:12;;;;;;;10.90;4.50;;;;;;;42.46;31.90;101251.00;6084670;23;20396;-71
2022/10/05 09:07:01;;;;;;;12.90;5.40;;;;;;;42.22;32.64;101248.88;6099440;23;20448;-71
2022/10/05 09:09:49;;;;;;;11.37;4.33;;;;;;;42.32;32.18;101254.75;6099789;23;20405;-71
2022/10/05 09:12:21;;;;;;;10.90;3.50;;;;;;;42.41;32.32;101251.97;6099621;23;20374;-72
2022/10/05 09:15:20;;;;;;;9.00;4.93;;;;;;;42.62;32.14;101254.81;6125455;23;20433;-70
2022/10/05 09:18:14;;;;;;;10.23;4.03;;;;;;;42.79;31.64;101259.38;6099384;23;20719;-77
2022/10/05 09:20:53;;;;;;;8.80;4.30;;;;;;;43.10;31.22;101253.56;6099386;23;20925;-72
2022/10/05 09:23:48;;;;;;;7.80;4.13;;;;;;;42.81;31.20;101243.44;6099650;23;20439;-70
2022/10/05 09:26:32;;;;;;;7.97;3.90;;;;;;;42.99;31.34;101250.41;6122111;23;20513;-70
2022/10/05 09:29:15;;;;;;;12.80;4.80;;;;;;;42.68;31.32;101249.97;6099401;23;20397;-70
2022/10/05 09:32:00;;;;;;;6.10;3.53;;;;;;;42.63;31.63;101254.47;6125950;23;20425;-70
2022/10/05 09:34:46;;;;;;;11.30;5.10;;;;;;;42.69;31.89;101243.38;6099721;23;20378;-71
2022/10/05 09:37:33;;;;;;;8.93;4.30;;;;;;;42.66;31.85;101255.72;6099632;23;20385;-70
2022/10/05 09:40:33;;;;;;;7.10;3.70;;;;;;;43.11;31.46;101250.47;6099400;23;20390;-70
2022/10/05 09:43:24;;;;;;;10.00;3.40;;;;;;;43.02;30.95;101252.47;6099498;23;20373;-70
2022/10/05 09:46:12;;;;;;;6.60;4.00;;;;;;;43.10;31.04;101248.09;6101294;23;20826;-71
2022/10/05 09:48:56;;;;;;;8.20;4.00;;;;;;;43.27;30.74;101253.38;6099416;23;20389;-71
2022/10/05 09:51:34;;;;;;;8.60;4.27;;;;;;;43.33;30.64;101253.97;6099350;23;20468;-71
2022/10/05 09:54:30;;;;;;;10.03;4.00;;;;;;;42.93;31.03;101249.78;6099757;23;20388;-72
2022/10/05 09:57:30;;;;;;;8.47;4.30;;;;;;;43.17;30.76;101245.63;6099576;23;20429;-70
2022/10/05 10:00:14;;;;;;;12.30;4.47;;;;;;;43.14;30.88;101247.06;6099574;23;20378;-70
2022/10/05 10:03:08;;;;;;;6.33;3.40;;;;;;;42.84;31.35;101243.56;6101111;23;20382;-70
2022/10/05 10:06:10;;;;;;;10.80;3.50;;;;;;;42.74;31.58;101235.00;6127584;23;20398;-70
2022/10/05 10:09:14;;;;;;;11.00;4.67;;;;;;;42.44;32.15;101232.25;6014274;23;20388;-70
2022/10/05 10:12:02;;;;;;;11.00;4.57;;;;;;;42.93;31.63;101238.06;6008451;23;20443;-72
2022/10/05 10:14:28;;;;;;;12.60;4.70;;;;;;;43.14;30.96;101233.41;6127368;23;20480;-72
2022/10/05 10:17:18;;;;;;;9.10;4.87;;;;;;;43.14;31.22;101229.88;6100796;23;20398;-71
2022/10/05 10:20:19;;;;;;;8.37;3.90;;;;;;;43.02;31.15;101225.16;6101075;23;20386;-70
2022/10/05 10:23:15;;;;;;;8.27;4.50;;;;;;;43.03;31.13;101218.59;6078500;23;20413;-70
2022/10/05 10:26:06;;;;;;;9.60;3.30;;;;;;;42.93;31.26;101216.22;6101166;23;20428;-70
2022/10/05 10:28:57;;;;;;;19.77;4.83;;;;;;;43.00;31.64;101210.28;6100975;23;20406;-70
2022/10/05 10:31:35;;;;;;;7.33;3.47;;;;;;;42.93;31.17;101210.78;6076960;23;20389;-70
2022/10/05 10:34:36;;;;;;;9.20;2.93;;;;;;;42.96;31.37;101209.28;6100905;23;20384;-70
2022/10/05 10:37:30;;;;;;;16.87;4.30;;;;;;;42.82;31.91;101204.91;6127248;23;20400;-70
2022/10/05 10:40:14;;;;;;;11.10;3.73;;;;;;;43.01;30.96;101204.47;6100797;23;20370;-70
2022/10/05 10:42:55;;;;;;;7.80;3.60;;;;;;;42.98;31.40;101205.16;6100747;23;20736;-70
2022/10/05 10:45:27;;;;;;;5.53;3.23;;;;;;;43.04;31.02;101209.28;6100523;23;20433;-70
2022/10/05 10:48:08;;;;;;;7.40;4.03;;;;;;;43.32;31.09;101206.75;6100799;23;20386;-72
2022/10/05 10:50:54;;;;;;;9.17;4.03;;;;;;;43.02;31.35;101208.00;6100611;23;20529;-71
2022/10/05 10:53:39;;;;;;;19.80;3.70;;;;;;;43.18;31.09;101206.25;6100700;23;20386;-71
2022/10/05 10:56:28;;;;;;;7.73;5.07;;;;;;;42.93;31.27;101211.56;6101044;23;20408;-70
2022/10/05 10:59:40;;;;;;;14.63;5.07;;;;;;;42.99;30.97;101214.94;6100750;23;20747;-70
2022/10/05 11:02:26;;;;;;;9.07;3.87;;;;;;;43.04;31.07;101211.22;6100636;23;20854;-70
2022/10/05 11:05:14;;;;;;;10.80;2.93;;;;;;;43.04;31.21;101206.53;6100415;23;20422;-72
2022/10/05 11:08:01;;;;;;;13.73;4.07;;;;;;;42.81;30.99;101202.53;6100504;23;20385;-71
2022/10/05 11:10:33;;;;;;;7.83;3.37;;;;;;;43.23;30.95;101197.88;6100500;23;20386;-69
2022/10/05 11:13:31;;;;;;;14.97;3.40;;;;;;;43.45;30.82;101194.75;6126355;23;20401;-71
2022/10/05 11:16:09;;;;;;;7.80;3.33;;;;;;;43.08;31.34;101199.25;6052813;23;20513;-71
2022/10/05 11:18:54;;;;;;;9.50;5.30;;;;;;;43.19;31.02;101196.94;6100255;23;20411;-71
2022/10/05 11:21:35;;;;;;;11.63;4.10;;;;;;;43.11;30.70;101195.09;6126640;23;20450;-71
2022/10/05 11:24:04;;;;;;;7.47;3.67;;;;;;;43.13;31.16;101184.63;6126516;23;20362;-70
2022/10/05 11:27:17;;;;;;;8.83;2.63;;;;;;;42.92;31.45;101170.97;6099718;23;20449;-69
2022/10/05 11:30:00;;;;;;;9.83;4.60;;;;;;;42.79;31.16;101163.88;6037463;23;20384;-71
2022/10/05 11:32:32;;;;;;;7.67;4.07;;;;;;;42.77;31.35;101158.72;6012936;23;20427;-69
2022/10/05 11:35:07;;;;;;;11.93;3.60;;;;;;;42.96;31.03;101152.78;6067104;23;20748;-70
2022/10/05 11:38:00;;;;;;;10.27;3.30;;;;;;;42.84;31.18;101145.34;6126336;23;20362;-69
2022/10/05 11:41:01;;;;;;;7.57;3.27;;;;;;;43.09;30.89;101140.81;6099839;23;20470;-72
2022/10/05 11:43:56;;;;;;;10.53;3.90;;;;;;;42.86;31.67;101134.91;6100019;23;20393;-72
2022/10/05 11:46:22;;;;;;;12.63;4.60;;;;;;;43.19;30.96;101137.66;6126319;23;20422;-71
2022/10/05 11:48:59;;;;;;;10.23;3.63;;;;;;;43.02;31.35;101139.75;6100248;23;20412;-72
2022/10/05 11:51:38;;;;;;;9.80;3.90;;;;;;;42.70;31.48;101131.19;6100147;23;20382;-72
2022/10/05 11:54:31;;;;;;;8.70;3.20;;;;;;;43.11;31.53;101127.63;6100059;23;20457;-74
2022/10/05 11:57:09;;;;;;;11.60;3.60;;;;;;;43.07;31.24;101121.25;6099684;23;20417;-70
2022/10/05 11:59:55;;;;;;;8.67;4.77;;;;;;;42.84;31.59;101098.16;6099597;23;20382;-73
2022/10/05 12:02:40;;;;;;;9.93;4.17;;;;;;;43.19;31.50;101098.63;6099625;23;20400;-73
2022/10/05 12:05:32;;;;;;;9.30;2.97;;;;;;;42.96;31.49;101094.66;6126097;23;20409;-73
2022/10/05 12:08:29;;;;;;;5.07;2.27;;;;;;;43.20;31.20;101092.03;6125857;23;20396;-72
2022/10/05 12:10:54;;;;;;;7.33;2.97;;;;;;;43.04;31.36;101088.38;6099613;23;20374;-72
2022/10/05 12:13:32;;;;;;;12.20;4.23;;;;;;;43.04;31.28;101088.38;6099631;23;20388;-72
2022/10/05 12:16:30;;;;;;;11.50;3.30;;;;;;;43.26;30.74;101077.03;6099354;23;20445;-74
2022/10/05 12:19:08;;;;;;;8.13;3.40;;;;;;;43.22;31.08;101073.41;6126062;23;20362;-70
2022/10/05 12:22:14;;;;;;;7.27;3.70;;;;;;;43.29;31.01;101068.19;6098258;23;20705;-71
2022/10/05 12:25:00;;;;;;;6.00;3.33;;;;;;;43.10;31.04;101059.72;5956572;24;20398;-70
2022/10/05 12:27:39;;;;;;;10.20;4.90;;;;;;;43.59;30.57;101051.63;6093968;23;20401;-71
2022/10/05 12:30:28;;;;;;;8.27;3.80;;;;;;;43.72;30.48;101048.53;6099506;23;20744;-71
2022/10/05 12:33:17;;;;;;;6.30;3.13;;;;;;;43.22;30.78;101058.94;6125691;23;20804;-71
2022/10/05 12:36:11;;;;;;;19.63;5.30;;;;;;;43.18;30.92;101043.25;6099485;23;20430;-77
2022/10/05 12:38:56;;;;;;;7.53;3.57;;;;;;;43.16;30.65;101048.25;6098317;23;20445;-71
2022/10/05 12:41:56;;;;;;;7.20;4.47;;;;;;;43.14;30.81;101052.44;6098413;23;20386;-72